createdAt,value
2019-01-29T00:01:02.124Z,990.4
2019-01-29T00:02:11.813Z,990.32
2019-01-29T00:03:21.503Z,990.38
2019-01-29T00:04:31.492Z,990.36
2019-01-29T00:05:41.441Z,990.44
2019-01-29T00:06:51.136Z,990.41
2019-01-29T00:08:01.078Z,990.4
2019-01-29T00:09:11.018Z,990.44
2019-01-29T00:10:20.955Z,990.48
2019-01-29T00:11:30.884Z,990.47
2019-01-29T00:12:40.570Z,990.53
2019-01-29T00:13:50.518Z,990.44
2019-01-29T00:15:00.250Z,990.48
2019-01-29T00:16:09.939Z,990.51
2019-01-29T00:17:19.637Z,990.53
2019-01-29T00:18:29.339Z,990.57
2019-01-29T00:19:39.270Z,990.63
2019-01-29T00:20:49.206Z,990.65
2019-01-29T00:21:59.147Z,990.73
2019-01-29T00:23:09.095Z,990.58
2019-01-29T00:24:18.548Z,990.56
2019-01-29T00:25:28.318Z,990.69
2019-01-29T00:26:38.539Z,990.7
2019-01-29T00:27:47.977Z,990.75
2019-01-29T00:28:57.911Z,990.72
2019-01-29T00:30:07.863Z,990.69
2019-01-29T00:31:17.826Z,990.74
2019-01-29T00:32:27.260Z,990.78
2019-01-29T00:33:37.144Z,990.73
2019-01-29T00:34:46.828Z,990.82
2019-01-29T00:35:56.501Z,990.86
2019-01-29T00:37:06.456Z,990.83
2019-01-29T00:38:16.426Z,990.84
2019-01-29T00:39:26.143Z,990.92
2019-01-29T00:40:35.575Z,990.9
2019-01-29T00:41:45.493Z,990.95
2019-01-29T00:42:55.181Z,991.05
2019-01-29T00:44:05.131Z,991.03
2019-01-29T00:45:14.817Z,990.93
2019-01-29T00:46:24.756Z,991
2019-01-29T00:47:34.606Z,991.02
2019-01-29T00:48:44.554Z,990.98
2019-01-29T00:49:54.488Z,991.05
2019-01-29T00:51:04.190Z,991.06
2019-01-29T00:52:14.147Z,991.02
2019-01-29T00:53:24.103Z,991.07
2019-01-29T00:54:33.784Z,991.15
2019-01-29T00:55:43.738Z,991.18
2019-01-29T00:56:53.688Z,991.22
2019-01-29T00:58:03.628Z,991.29
2019-01-29T00:59:13.587Z,991.31
2019-01-29T01:00:23.535Z,991.31
2019-01-29T01:01:33.473Z,991.27
2019-01-29T01:02:43.414Z,991.34
2019-01-29T01:03:53.376Z,991.34
2019-01-29T01:05:03.318Z,991.32
2019-01-29T01:06:13.248Z,991.29
2019-01-29T01:07:23.181Z,991.39
2019-01-29T01:08:32.853Z,991.36
2019-01-29T01:09:43.478Z,991.47
2019-01-29T01:11:01.926Z,991.46
2019-01-29T01:12:11.686Z,991.38
2019-01-29T01:13:21.373Z,991.43
2019-01-29T01:14:31.336Z,991.52
2019-01-29T01:15:41.264Z,991.48
2019-01-29T01:16:51.205Z,991.68
2019-01-29T01:18:00.944Z,991.54
2019-01-29T01:19:10.645Z,991.64
2019-01-29T01:20:20.590Z,991.62
2019-01-29T01:21:30.305Z,991.62
2019-01-29T01:22:39.992Z,991.7
2019-01-29T01:23:57.935Z,991.69
2019-01-29T01:25:07.895Z,991.66
2019-01-29T01:26:17.829Z,991.64
2019-01-29T01:27:27.275Z,991.76
2019-01-29T01:28:36.955Z,991.68
2019-01-29T01:29:46.885Z,991.78
2019-01-29T01:30:56.816Z,991.74
2019-01-29T01:32:06.806Z,991.69
2019-01-29T01:33:16.741Z,991.82
2019-01-29T01:34:26.682Z,991.86
2019-01-29T01:35:36.621Z,991.85
2019-01-29T01:36:46.555Z,991.77
2019-01-29T01:37:55.986Z,991.92
2019-01-29T01:39:05.921Z,991.83
2019-01-29T01:40:15.854Z,991.85
2019-01-29T01:41:25.821Z,991.84
2019-01-29T01:42:35.761Z,991.91
2019-01-29T01:43:45.454Z,991.87
2019-01-29T01:44:55.387Z,991.96
2019-01-29T01:46:05.471Z,991.99
2019-01-29T01:47:15.146Z,991.92
2019-01-29T01:48:25.081Z,991.95
2019-01-29T01:49:34.767Z,992.03
2019-01-29T01:50:44.525Z,992.13
2019-01-29T01:51:54.229Z,992.09
2019-01-29T01:53:04.271Z,992.06
2019-01-29T01:54:13.963Z,992.06
2019-01-29T01:55:23.887Z,992.18
2019-01-29T01:56:33.809Z,992.18
2019-01-29T01:57:43.733Z,992.11
2019-01-29T01:58:53.673Z,992.19
2019-01-29T02:00:03.625Z,992.2
2019-01-29T02:01:13.581Z,992.19
2019-01-29T02:02:23.263Z,992.26
2019-01-29T02:03:33.201Z,992.27
2019-01-29T02:04:42.885Z,992.25
2019-01-29T02:05:52.817Z,992.29
2019-01-29T02:07:02.771Z,992.33
2019-01-29T02:08:14.541Z,992.44
2019-01-29T02:09:24.478Z,992.38
2019-01-29T02:10:34.423Z,992.38
2019-01-29T02:11:44.108Z,992.44
2019-01-29T02:12:54.047Z,992.46
2019-01-29T02:14:03.731Z,992.37
2019-01-29T02:15:13.426Z,992.5
2019-01-29T02:16:23.143Z,992.44
2019-01-29T02:17:33.081Z,992.55
2019-01-29T02:18:43.015Z,992.47
2019-01-29T02:19:52.687Z,992.45
2019-01-29T02:21:02.392Z,992.48
2019-01-29T02:22:12.326Z,992.54
2019-01-29T02:23:22.258Z,992.57
2019-01-29T02:24:32.215Z,992.52
2019-01-29T02:25:42.139Z,992.57
2019-01-29T02:26:52.063Z,992.52
2019-01-29T02:28:01.741Z,992.52
2019-01-29T02:29:11.442Z,992.62
2019-01-29T02:30:21.385Z,992.63
2019-01-29T02:31:31.355Z,992.72
2019-01-29T02:32:41.311Z,992.81
2019-01-29T02:33:51.257Z,992.74
2019-01-29T02:35:01.197Z,992.65
2019-01-29T02:36:11.181Z,992.78
2019-01-29T02:37:21.141Z,992.77
2019-01-29T02:38:30.858Z,992.87
2019-01-29T02:39:40.816Z,993.15
2019-01-29T02:40:50.503Z,992.9
2019-01-29T02:42:00.448Z,992.91
2019-01-29T02:43:10.377Z,993.04
2019-01-29T02:44:20.306Z,992.96
2019-01-29T02:45:30.240Z,992.96
2019-01-29T02:46:40.181Z,992.93
2019-01-29T02:47:50.109Z,992.86
2019-01-29T02:49:00.044Z,992.95
2019-01-29T02:50:09.989Z,992.83
2019-01-29T02:51:19.915Z,992.91
2019-01-29T02:52:29.870Z,993.09
2019-01-29T02:53:39.555Z,993.02
2019-01-29T02:54:49.536Z,993.11
2019-01-29T02:55:59.221Z,993.08
2019-01-29T02:57:09.158Z,993.17
2019-01-29T02:58:19.096Z,993.24
2019-01-29T02:59:29.037Z,993.19
2019-01-29T03:00:38.975Z,993.15
2019-01-29T03:01:48.659Z,993.39
2019-01-29T03:02:58.352Z,993.26
2019-01-29T03:04:08.322Z,993.28
2019-01-29T03:05:18.261Z,993.34
2019-01-29T03:06:28.209Z,993.26
2019-01-29T03:07:38.150Z,993.4
2019-01-29T03:08:47.844Z,993.34
2019-01-29T03:09:57.519Z,993.4
2019-01-29T03:11:07.213Z,993.34
2019-01-29T03:12:17.137Z,993.38
2019-01-29T03:13:26.329Z,993.42
2019-01-29T03:14:36.267Z,993.42
2019-01-29T03:15:46.214Z,993.53
2019-01-29T03:16:56.150Z,993.57
2019-01-29T03:18:05.848Z,993.62
2019-01-29T03:19:15.289Z,993.52
2019-01-29T03:20:25.000Z,993.59
2019-01-29T03:21:34.443Z,993.7
2019-01-29T03:22:44.384Z,993.69
2019-01-29T03:23:54.320Z,993.86
2019-01-29T03:25:04.014Z,993.62
2019-01-29T03:26:13.963Z,993.88
2019-01-29T03:27:23.662Z,993.78
2019-01-29T03:28:33.363Z,993.88
2019-01-29T03:29:42.800Z,993.82
2019-01-29T03:30:52.757Z,993.96
2019-01-29T03:32:02.525Z,994.05
2019-01-29T03:33:12.532Z,993.88
2019-01-29T03:34:22.008Z,994.02
2019-01-29T03:35:31.957Z,994.25
2019-01-29T03:36:41.902Z,994.01
2019-01-29T03:37:51.581Z,994.05
2019-01-29T03:39:01.043Z,994.12
2019-01-29T03:40:10.725Z,994.15
2019-01-29T03:41:20.659Z,994.09
2019-01-29T03:42:30.350Z,994.15
2019-01-29T03:43:41.475Z,994.13
2019-01-29T03:44:51.161Z,994.1
2019-01-29T03:46:01.104Z,994.21
2019-01-29T03:47:10.539Z,994.21
2019-01-29T03:48:20.475Z,994.12
2019-01-29T03:49:30.434Z,994.18
2019-01-29T03:50:40.361Z,994.26
2019-01-29T03:51:50.314Z,994.22
2019-01-29T03:53:00.243Z,994.22
2019-01-29T03:54:09.673Z,994.34
2019-01-29T03:55:19.139Z,994.29
2019-01-29T03:56:28.572Z,994.27
2019-01-29T03:57:38.264Z,994.26
2019-01-29T03:58:47.696Z,994.41
2019-01-29T03:59:57.638Z,994.38
2019-01-29T04:01:07.337Z,994.42
2019-01-29T04:02:17.335Z,994.41
2019-01-29T04:03:27.280Z,994.47
2019-01-29T04:04:37.219Z,994.51
2019-01-29T04:05:47.161Z,994.51
2019-01-29T04:06:57.100Z,994.36
2019-01-29T04:08:06.788Z,994.33
2019-01-29T04:09:16.722Z,994.44
2019-01-29T04:10:26.436Z,994.42
2019-01-29T04:11:36.378Z,994.68
2019-01-29T04:12:46.341Z,994.41
2019-01-29T04:13:56.311Z,994.6
2019-01-29T04:15:06.005Z,994.53
2019-01-29T04:16:15.460Z,994.55
2019-01-29T04:17:25.169Z,994.53
2019-01-29T04:18:35.116Z,994.6
2019-01-29T04:19:45.053Z,994.65
2019-01-29T04:20:54.988Z,994.69
2019-01-29T04:22:04.937Z,994.68
2019-01-29T04:23:14.870Z,994.71
2019-01-29T04:24:24.445Z,994.81
2019-01-29T04:25:34.388Z,994.71
2019-01-29T04:26:44.092Z,994.78
2019-01-29T04:27:53.792Z,994.88
2019-01-29T04:29:03.746Z,994.89
2019-01-29T04:30:13.668Z,994.84
2019-01-29T04:31:23.637Z,994.88
2019-01-29T04:32:33.576Z,995.1
2019-01-29T04:33:43.667Z,995.04
2019-01-29T04:34:53.104Z,995
2019-01-29T04:36:03.052Z,994.9
2019-01-29T04:37:12.744Z,994.92
2019-01-29T04:38:22.495Z,995.07
2019-01-29T04:39:32.424Z,994.88
2019-01-29T04:40:42.346Z,995.09
2019-01-29T04:41:51.782Z,994.85
2019-01-29T04:43:01.718Z,995.08
2019-01-29T04:44:13.439Z,994.91
2019-01-29T04:45:23.382Z,995.12
2019-01-29T04:46:33.344Z,995.09
2019-01-29T04:47:43.292Z,995
2019-01-29T04:48:53.008Z,994.97
2019-01-29T04:50:02.698Z,995.13
2019-01-29T04:51:12.392Z,995.06
2019-01-29T04:52:22.332Z,995.36
2019-01-29T04:53:31.770Z,995.25
2019-01-29T04:54:41.707Z,995.21
2019-01-29T04:55:51.644Z,995.59
2019-01-29T04:57:01.582Z,995.23
2019-01-29T04:58:11.298Z,995.23
2019-01-29T04:59:21.249Z,995.15
2019-01-29T05:00:30.932Z,995.36
2019-01-29T05:01:40.616Z,995.33
2019-01-29T05:02:50.561Z,995.38
2019-01-29T05:04:00.731Z,995.29
2019-01-29T05:05:10.664Z,995.28
2019-01-29T05:06:20.386Z,995.3
2019-01-29T05:07:30.310Z,995.39
2019-01-29T05:08:40.002Z,995.48
2019-01-29T05:09:49.446Z,995.33
2019-01-29T05:10:59.213Z,995.4
2019-01-29T05:12:09.152Z,995.36
2019-01-29T05:13:19.938Z,995.4
2019-01-29T05:14:29.873Z,995.45
2019-01-29T05:15:39.346Z,995.58
2019-01-29T05:16:49.059Z,995.48
2019-01-29T05:17:59.000Z,995.52
2019-01-29T05:19:08.931Z,995.51
2019-01-29T05:20:18.643Z,995.49
2019-01-29T05:21:28.095Z,995.49
2019-01-29T05:22:37.808Z,995.59
2019-01-29T05:23:47.779Z,995.64
2019-01-29T05:25:07.127Z,995.56
2019-01-29T05:26:17.069Z,995.54
2019-01-29T05:27:26.757Z,995.57
2019-01-29T05:28:36.206Z,995.7
2019-01-29T05:29:45.415Z,995.67
2019-01-29T05:30:55.132Z,995.7
2019-01-29T05:32:04.849Z,995.84
2019-01-29T05:33:14.605Z,995.87
2019-01-29T05:34:24.295Z,995.76
2019-01-29T05:35:33.996Z,995.75
2019-01-29T05:36:43.997Z,995.78
2019-01-29T05:37:53.928Z,995.79
2019-01-29T05:39:04.782Z,995.79
2019-01-29T05:40:14.471Z,995.82
2019-01-29T05:41:24.201Z,995.87
2019-01-29T05:42:33.888Z,995.8
2019-01-29T05:43:43.335Z,995.84
2019-01-29T05:44:53.278Z,995.82
2019-01-29T05:46:03.212Z,995.84
2019-01-29T05:47:13.146Z,995.8
2019-01-29T05:48:22.596Z,995.84
2019-01-29T05:49:32.298Z,995.92
2019-01-29T05:50:41.728Z,995.96
2019-01-29T05:51:51.676Z,995.96
2019-01-29T05:53:01.358Z,995.93
2019-01-29T05:54:16.310Z,996.04
2019-01-29T05:55:26.314Z,995.95
2019-01-29T05:56:35.508Z,995.96
2019-01-29T05:57:45.453Z,995.99
2019-01-29T05:58:54.890Z,996.01
2019-01-29T06:00:04.579Z,996.01
2019-01-29T06:01:14.279Z,996.03
2019-01-29T06:02:23.960Z,996.05
2019-01-29T06:03:33.941Z,996.12
2019-01-29T06:04:43.643Z,996.07
2019-01-29T06:05:53.348Z,996.09
2019-01-29T06:07:03.046Z,996.21
2019-01-29T06:08:12.985Z,996.15
2019-01-29T06:09:22.669Z,996.19
2019-01-29T06:10:32.617Z,996.2
2019-01-29T06:11:42.298Z,996.21
2019-01-29T06:12:52.238Z,996.22
2019-01-29T06:14:02.202Z,996.17
2019-01-29T06:15:11.921Z,996.33
2019-01-29T06:16:21.859Z,996.36
2019-01-29T06:17:31.610Z,996.3
2019-01-29T06:18:41.303Z,996.4
2019-01-29T06:19:51.248Z,996.32
2019-01-29T06:21:00.946Z,996.37
2019-01-29T06:22:10.883Z,996.39
2019-01-29T06:23:20.849Z,996.43
2019-01-29T06:24:30.788Z,996.36
2019-01-29T06:25:40.517Z,996.44
2019-01-29T06:26:50.789Z,996.51
2019-01-29T06:28:00.741Z,996.59
2019-01-29T06:29:10.686Z,996.56
2019-01-29T06:30:20.629Z,996.59
2019-01-29T06:31:30.070Z,996.72
2019-01-29T06:32:39.527Z,996.8
2019-01-29T06:33:49.466Z,996.64
2019-01-29T06:34:59.676Z,996.68
2019-01-29T06:36:09.648Z,996.67
2019-01-29T06:37:19.096Z,996.88
2019-01-29T06:38:28.799Z,996.81
2019-01-29T06:39:38.738Z,996.96
2019-01-29T06:40:48.421Z,996.87
2019-01-29T06:41:58.362Z,996.85
2019-01-29T06:43:08.302Z,996.92
2019-01-29T06:44:18.246Z,996.99
2019-01-29T06:45:27.942Z,996.91
2019-01-29T06:46:37.640Z,996.93
2019-01-29T06:47:47.339Z,997.03
2019-01-29T06:48:57.039Z,997.07
2019-01-29T06:50:07.212Z,997.08
2019-01-29T06:51:17.147Z,997.19
2019-01-29T06:52:27.086Z,997.18
2019-01-29T06:53:37.039Z,997.15
2019-01-29T06:54:46.727Z,997.19
2019-01-29T06:55:56.663Z,997.22
2019-01-29T06:57:06.601Z,997.27
2019-01-29T06:58:16.531Z,997.25
2019-01-29T06:59:26.209Z,997.27
2019-01-29T07:00:36.139Z,997.31
2019-01-29T07:01:45.589Z,997.35
2019-01-29T07:02:55.268Z,997.29
2019-01-29T07:04:04.721Z,997.34
2019-01-29T07:05:14.502Z,997.4
2019-01-29T07:06:24.450Z,997.37
2019-01-29T07:07:33.641Z,997.42
2019-01-29T07:08:43.083Z,997.58
2019-01-29T07:09:52.765Z,997.49
2019-01-29T07:11:02.701Z,997.45
2019-01-29T07:12:12.640Z,997.54
2019-01-29T07:13:22.330Z,997.53
2019-01-29T07:14:32.006Z,997.43
2019-01-29T07:15:41.699Z,997.48
2019-01-29T07:16:51.371Z,997.57
2019-01-29T07:18:01.305Z,997.58
2019-01-29T07:19:10.998Z,997.68
2019-01-29T07:20:20.429Z,997.62
2019-01-29T07:21:30.105Z,997.7
2019-01-29T07:22:40.059Z,997.64
2019-01-29T07:23:49.991Z,997.75
2019-01-29T07:24:59.684Z,997.67
2019-01-29T07:26:09.613Z,997.67
2019-01-29T07:27:19.563Z,997.68
2019-01-29T07:28:29.563Z,997.69
2019-01-29T07:29:39.509Z,997.71
2019-01-29T07:30:49.212Z,997.68
2019-01-29T07:31:58.409Z,997.83
2019-01-29T07:33:08.348Z,997.69
2019-01-29T07:34:18.283Z,997.67
2019-01-29T07:35:28.237Z,997.7
2019-01-29T07:36:38.213Z,997.7
2019-01-29T07:37:48.151Z,997.74
2019-01-29T07:38:58.123Z,997.72
2019-01-29T07:40:10.225Z,997.74
2019-01-29T07:41:20.490Z,997.76
2019-01-29T07:42:30.427Z,997.73
2019-01-29T07:43:40.113Z,997.72
2019-01-29T07:44:49.811Z,997.75
2019-01-29T07:45:59.763Z,997.81
2019-01-29T07:47:09.705Z,997.77
2019-01-29T07:48:19.702Z,997.87
2019-01-29T07:49:29.872Z,997.83
2019-01-29T07:50:39.804Z,997.81
2019-01-29T07:51:49.751Z,997.84
2019-01-29T07:52:59.707Z,997.77
2019-01-29T07:54:09.656Z,997.76
2019-01-29T07:55:19.597Z,997.78
2019-01-29T07:56:29.554Z,997.79
2019-01-29T07:57:39.495Z,997.83
2019-01-29T07:58:49.686Z,997.93
2019-01-29T07:59:59.648Z,997.88
2019-01-29T08:01:09.603Z,997.85
2019-01-29T08:02:19.545Z,997.91
2019-01-29T08:03:29.491Z,997.87
2019-01-29T08:04:40.782Z,997.87
2019-01-29T08:05:50.759Z,997.99
2019-01-29T08:07:00.723Z,997.95
2019-01-29T08:08:10.650Z,997.95
2019-01-29T08:09:20.371Z,997.98
2019-01-29T08:10:30.307Z,998.03
2019-01-29T08:11:40.256Z,997.98
2019-01-29T08:12:49.964Z,998.05
2019-01-29T08:14:01.828Z,997.99
2019-01-29T08:15:11.797Z,998.01
2019-01-29T08:16:21.731Z,997.96
2019-01-29T08:17:31.677Z,998
2019-01-29T08:18:41.120Z,997.97
2019-01-29T08:19:51.060Z,998.04
2019-01-29T08:21:01.052Z,998.05
2019-01-29T08:22:10.491Z,998.03
2019-01-29T08:23:20.268Z,998.05
2019-01-29T08:24:30.207Z,998.07
2019-01-29T08:25:47.543Z,998.11
2019-01-29T08:26:57.605Z,998.1
2019-01-29T08:28:07.571Z,998.21
2019-01-29T08:29:17.495Z,998.23
2019-01-29T08:30:27.186Z,998.24
2019-01-29T08:31:36.615Z,998.24
2019-01-29T08:32:46.555Z,998.23
2019-01-29T08:33:56.498Z,998.26
2019-01-29T08:35:06.443Z,998.22
2019-01-29T08:36:16.390Z,998.3
2019-01-29T08:37:26.313Z,998.27
2019-01-29T08:38:36.277Z,998.26
2019-01-29T08:39:46.249Z,998.37
2019-01-29T08:40:55.966Z,998.3
2019-01-29T08:42:07.395Z,998.32
2019-01-29T08:43:16.839Z,998.55
2019-01-29T08:44:26.790Z,998.34
2019-01-29T08:45:36.749Z,998.39
2019-01-29T08:46:46.699Z,998.4
2019-01-29T08:47:56.612Z,998.47
2019-01-29T08:49:06.549Z,998.38
2019-01-29T08:50:16.250Z,998.41
2019-01-29T08:51:26.202Z,998.43
2019-01-29T08:52:35.642Z,998.41
2019-01-29T08:53:45.375Z,998.5
2019-01-29T08:54:55.325Z,998.42
2019-01-29T08:56:13.352Z,998.48
2019-01-29T08:57:23.306Z,998.57
2019-01-29T08:58:33.027Z,998.6
2019-01-29T08:59:42.996Z,998.54
2019-01-29T09:00:52.714Z,998.61
2019-01-29T09:02:02.667Z,998.52
2019-01-29T09:03:13.540Z,998.53
2019-01-29T09:04:23.499Z,998.63
2019-01-29T09:05:33.228Z,998.55
2019-01-29T09:06:42.969Z,998.52
2019-01-29T09:07:52.943Z,998.53
2019-01-29T09:09:02.957Z,998.52
2019-01-29T09:10:12.681Z,998.59
2019-01-29T09:11:22.388Z,998.55
2019-01-29T09:12:31.865Z,998.53
2019-01-29T09:13:41.851Z,998.51
2019-01-29T09:14:51.646Z,998.87
2019-01-29T09:16:01.602Z,998.78
2019-01-29T09:17:11.110Z,998.71
2019-01-29T09:18:21.081Z,998.79
2019-01-29T09:19:30.284Z,998.77
2019-01-29T09:20:39.998Z,998.7
2019-01-29T09:21:49.929Z,998.7
2019-01-29T09:22:59.893Z,998.72
2019-01-29T09:24:09.836Z,998.72
2019-01-29T09:25:22.486Z,998.88
2019-01-29T09:26:32.629Z,998.87
2019-01-29T09:27:42.077Z,998.8
2019-01-29T09:28:51.774Z,998.77
2019-01-29T09:30:01.801Z,998.79
2019-01-29T09:31:12.022Z,998.73
2019-01-29T09:32:22.255Z,998.72
2019-01-29T09:33:32.239Z,998.77
2019-01-29T09:34:42.222Z,998.83
2019-01-29T09:35:52.181Z,998.85
2019-01-29T09:37:02.369Z,998.81
2019-01-29T09:38:12.066Z,998.72
2019-01-29T09:39:22.017Z,998.85
2019-01-29T09:40:31.994Z,998.86
2019-01-29T09:41:42.160Z,998.83
2019-01-29T09:42:52.128Z,998.87
2019-01-29T09:44:01.842Z,998.82
2019-01-29T09:45:11.322Z,998.95
2019-01-29T09:46:21.027Z,998.79
2019-01-29T09:47:30.986Z,998.82
2019-01-29T09:48:40.689Z,998.91
2019-01-29T09:49:50.658Z,998.84
2019-01-29T09:51:00.748Z,998.86
2019-01-29T09:52:10.467Z,998.82
2019-01-29T09:53:20.173Z,998.86
2019-01-29T09:54:30.122Z,998.82
2019-01-29T09:55:40.094Z,998.84
2019-01-29T09:56:50.076Z,998.88
2019-01-29T09:57:59.834Z,998.83
2019-01-29T09:59:09.562Z,998.87
2019-01-29T10:00:21.545Z,998.9
2019-01-29T10:01:31.457Z,998.83
2019-01-29T10:02:41.438Z,998.83
2019-01-29T10:03:51.407Z,998.93
2019-01-29T10:05:01.142Z,998.91
2019-01-29T10:06:11.091Z,998.95
2019-01-29T10:07:21.074Z,998.96
2019-01-29T10:08:31.034Z,998.88
2019-01-29T10:09:40.731Z,998.93
2019-01-29T10:10:50.462Z,998.92
2019-01-29T10:12:00.153Z,998.94
2019-01-29T10:13:10.094Z,998.92
2019-01-29T10:14:20.043Z,998.97
2019-01-29T10:15:29.740Z,998.89
2019-01-29T10:16:39.432Z,998.9
2019-01-29T10:17:49.375Z,998.89
2019-01-29T10:18:59.339Z,998.95
2019-01-29T10:20:09.286Z,998.92
2019-01-29T10:21:18.719Z,998.89
2019-01-29T10:22:28.738Z,999
2019-01-29T10:23:39.116Z,998.92
2019-01-29T10:24:49.413Z,998.96
2019-01-29T10:25:59.362Z,998.93
2019-01-29T10:27:09.299Z,998.98
2019-01-29T10:28:18.982Z,998.97
2019-01-29T10:29:28.456Z,998.96
2019-01-29T10:30:38.154Z,999
2019-01-29T10:31:47.958Z,999.03
2019-01-29T10:32:57.897Z,998.93
2019-01-29T10:34:07.603Z,998.93
2019-01-29T10:35:17.577Z,998.95
2019-01-29T10:36:27.529Z,998.96
2019-01-29T10:37:39.401Z,998.99
2019-01-29T10:38:49.339Z,998.99
2019-01-29T10:39:59.071Z,998.91
2019-01-29T10:41:09.006Z,998.9
2019-01-29T10:42:18.956Z,998.93
2019-01-29T10:43:28.651Z,998.97
2019-01-29T10:44:38.612Z,999.03
2019-01-29T10:45:48.325Z,998.93
2019-01-29T10:46:57.785Z,999.04
2019-01-29T10:48:07.746Z,998.93
2019-01-29T10:49:17.446Z,999.01
2019-01-29T10:50:27.701Z,999.04
2019-01-29T10:51:37.674Z,998.96
2019-01-29T10:52:47.421Z,998.92
2019-01-29T10:53:57.388Z,998.95
2019-01-29T10:55:06.820Z,998.99
2019-01-29T10:56:16.520Z,998.89
2019-01-29T10:57:26.482Z,998.89
2019-01-29T10:58:36.181Z,998.89
2019-01-29T10:59:46.145Z,998.93
2019-01-29T11:00:56.101Z,998.95
2019-01-29T11:02:05.559Z,998.9
2019-01-29T11:03:15.536Z,998.84
2019-01-29T11:04:25.222Z,998.95
2019-01-29T11:05:34.928Z,998.86
2019-01-29T11:06:44.631Z,998.96
2019-01-29T11:07:54.378Z,998.88
2019-01-29T11:09:04.339Z,998.87
2019-01-29T11:10:13.522Z,998.99
2019-01-29T11:11:22.963Z,998.98
2019-01-29T11:12:32.906Z,998.88
2019-01-29T11:13:42.873Z,999.11
2019-01-29T11:14:52.327Z,999.17
2019-01-29T11:16:02.068Z,998.95
2019-01-29T11:17:12.021Z,998.97
2019-01-29T11:18:21.460Z,998.98
2019-01-29T11:19:30.929Z,998.91
2019-01-29T11:20:41.967Z,998.93
2019-01-29T11:21:51.986Z,998.98
2019-01-29T11:23:03.586Z,998.99
2019-01-29T11:24:13.517Z,998.94
2019-01-29T11:25:23.475Z,998.93
2019-01-29T11:26:33.165Z,998.97
2019-01-29T11:27:43.117Z,998.97
2019-01-29T11:28:52.824Z,998.96
2019-01-29T11:30:02.956Z,998.95
2019-01-29T11:31:12.667Z,998.92
2019-01-29T11:32:22.099Z,998.92
2019-01-29T11:33:32.070Z,999.07
2019-01-29T11:34:41.863Z,998.92
2019-01-29T11:35:51.562Z,998.91
2019-01-29T11:37:01.510Z,998.93
2019-01-29T11:38:12.669Z,998.93
2019-01-29T11:39:22.367Z,998.93
2019-01-29T11:40:32.050Z,998.89
2019-01-29T11:41:42.001Z,999.09
2019-01-29T11:42:51.465Z,998.99
2019-01-29T11:44:01.163Z,998.93
2019-01-29T11:45:10.874Z,998.95
2019-01-29T11:46:20.384Z,998.97
2019-01-29T11:47:29.871Z,998.97
2019-01-29T11:48:39.348Z,999.01
2019-01-29T11:49:49.306Z,999
2019-01-29T11:50:59.061Z,999
2019-01-29T11:52:08.541Z,998.93
2019-01-29T11:53:18.630Z,998.91
2019-01-29T11:54:28.390Z,999.06
2019-01-29T11:55:38.093Z,998.99
2019-01-29T11:56:48.044Z,998.96
2019-01-29T11:57:57.289Z,998.91
2019-01-29T11:59:07.293Z,998.98
2019-01-29T12:00:17.234Z,998.91
2019-01-29T12:01:26.682Z,998.98
2019-01-29T12:02:36.629Z,999
2019-01-29T12:03:46.590Z,999.06
2019-01-29T12:04:56.564Z,999.01
2019-01-29T12:06:06.495Z,999.1
2019-01-29T12:07:15.976Z,999.04
2019-01-29T12:08:27.431Z,999.04
2019-01-29T12:09:37.152Z,998.98
2019-01-29T12:10:47.103Z,999.07
2019-01-29T12:11:56.818Z,999.03
2019-01-29T12:13:06.514Z,999.08
2019-01-29T12:14:16.243Z,999.09
2019-01-29T12:15:26.021Z,999.05
2019-01-29T12:16:36.053Z,999.07
2019-01-29T12:17:45.783Z,999.04
2019-01-29T12:18:55.771Z,999.17
2019-01-29T12:20:05.731Z,999.09
2019-01-29T12:21:15.721Z,999.06
2019-01-29T12:22:25.656Z,999.09
2019-01-29T12:23:35.388Z,999.05
2019-01-29T12:24:45.333Z,999.06
2019-01-29T12:25:55.018Z,999.04
2019-01-29T12:27:13.267Z,999.07
2019-01-29T12:28:23.231Z,999.11
2019-01-29T12:29:33.216Z,999.08
2019-01-29T12:30:43.201Z,999.06
2019-01-29T12:31:53.160Z,999.08
2019-01-29T12:33:03.164Z,999.08
2019-01-29T12:34:12.869Z,999.11
2019-01-29T12:35:23.782Z,999.13
2019-01-29T12:36:33.626Z,999.17
2019-01-29T12:37:43.624Z,999.19
2019-01-29T12:38:53.585Z,999.13
2019-01-29T12:40:03.524Z,999.11
2019-01-29T12:41:13.232Z,999.12
2019-01-29T12:42:23.187Z,999.12
2019-01-29T12:43:33.143Z,999.12
2019-01-29T12:44:42.602Z,999.13
2019-01-29T12:45:52.054Z,999.16
2019-01-29T12:47:01.528Z,999.08
2019-01-29T12:48:11.499Z,999.15
2019-01-29T12:49:21.467Z,999.08
2019-01-29T12:50:30.955Z,999.03
2019-01-29T12:51:40.926Z,999.02
2019-01-29T12:52:50.386Z,999.14
2019-01-29T12:54:00.344Z,999.04
2019-01-29T12:55:10.519Z,999.02
2019-01-29T12:56:21.473Z,999
2019-01-29T12:57:31.438Z,998.97
2019-01-29T12:58:41.394Z,999.03
2019-01-29T12:59:51.513Z,998.99
2019-01-29T13:01:01.015Z,999.02
2019-01-29T13:02:10.709Z,999
2019-01-29T13:03:20.725Z,998.99
2019-01-29T13:04:30.663Z,999.01
2019-01-29T13:05:40.641Z,998.97
2019-01-29T13:06:50.577Z,998.95
2019-01-29T13:08:00.574Z,999.01
2019-01-29T13:09:10.526Z,999
2019-01-29T13:10:20.242Z,998.97
2019-01-29T13:11:30.003Z,998.87
2019-01-29T13:12:39.991Z,998.93
2019-01-29T13:13:49.949Z,998.97
2019-01-29T13:14:59.642Z,998.96
2019-01-29T13:16:09.587Z,998.93
2019-01-29T13:17:19.582Z,998.92
2019-01-29T13:18:29.546Z,998.91
2019-01-29T13:19:39.572Z,998.88
2019-01-29T13:20:49.525Z,998.91
2019-01-29T13:21:59.218Z,998.92
2019-01-29T13:23:08.913Z,998.9
2019-01-29T13:24:18.608Z,998.85
2019-01-29T13:25:28.321Z,998.86
2019-01-29T13:26:38.069Z,998.84
2019-01-29T13:27:47.768Z,998.86
2019-01-29T13:28:57.459Z,998.84
2019-01-29T13:30:07.181Z,998.87
2019-01-29T13:31:16.911Z,998.88
2019-01-29T13:32:26.853Z,998.83
2019-01-29T13:33:36.561Z,998.89
2019-01-29T13:34:46.517Z,998.84
2019-01-29T13:35:56.460Z,998.86
2019-01-29T13:37:06.404Z,998.87
2019-01-29T13:38:16.387Z,998.88
2019-01-29T13:39:26.084Z,998.88
2019-01-29T13:40:36.032Z,998.93
2019-01-29T13:41:45.743Z,998.96
2019-01-29T13:42:55.692Z,998.96
2019-01-29T13:44:05.863Z,998.99
2019-01-29T13:45:15.802Z,998.98
2019-01-29T13:46:26.497Z,998.97
2019-01-29T13:47:36.709Z,999.03
2019-01-29T13:48:46.405Z,998.99
2019-01-29T13:49:56.437Z,999
2019-01-29T13:51:06.377Z,999.02
2019-01-29T13:52:16.111Z,998.88
2019-01-29T13:53:26.062Z,998.92
2019-01-29T13:54:35.750Z,998.91
2019-01-29T13:55:45.709Z,998.91
2019-01-29T13:56:55.424Z,998.91
2019-01-29T13:58:05.124Z,998.93
2019-01-29T13:59:14.821Z,998.95
2019-01-29T14:00:24.777Z,998.98
2019-01-29T14:01:34.732Z,998.94
2019-01-29T14:02:44.669Z,998.96
2019-01-29T14:03:54.618Z,998.99
2019-01-29T14:05:11.141Z,999.04
2019-01-29T14:06:20.838Z,999.01
2019-01-29T14:07:30.283Z,998.99
2019-01-29T14:08:40.222Z,999.01
2019-01-29T14:09:49.924Z,999.07
2019-01-29T14:10:59.862Z,999.05
2019-01-29T14:12:09.817Z,999.07
2019-01-29T14:13:19.383Z,999.09
2019-01-29T14:14:29.088Z,999.09
2019-01-29T14:15:38.783Z,999.05
2019-01-29T14:16:48.741Z,999.08
2019-01-29T14:17:58.204Z,999.07
2019-01-29T14:19:07.656Z,999.16
2019-01-29T14:20:17.610Z,999.08
2019-01-29T14:21:27.320Z,999.13
2019-01-29T14:22:37.287Z,999.11
2019-01-29T14:23:46.733Z,999.16
2019-01-29T14:24:56.681Z,999.14
2019-01-29T14:26:06.634Z,999.12
2019-01-29T14:27:17.863Z,999.12
2019-01-29T14:28:28.518Z,999.11
2019-01-29T14:29:39.499Z,999.03
2019-01-29T14:30:49.233Z,999.1
2019-01-29T14:31:59.356Z,999.01
2019-01-29T14:33:09.387Z,999.01
2019-01-29T14:34:19.085Z,999.04
2019-01-29T14:35:29.335Z,999.07
2019-01-29T14:36:39.275Z,999.05